createdAt,value
2022-12-18T00:01:34.099Z,82.09
2022-12-18T00:04:09.442Z,82.08
2022-12-18T00:06:37.876Z,81.99
2022-12-18T00:09:06.068Z,82.18
2022-12-18T00:11:34.432Z,82.20
2022-12-18T00:14:02.745Z,82.38
2022-12-18T00:16:33.859Z,82.53
2022-12-18T00:19:04.087Z,82.42
2022-12-18T00:21:34.251Z,82.09
2022-12-18T00:24:02.946Z,82.03
2022-12-18T00:26:33.887Z,82.23
2022-12-18T00:29:05.299Z,82.26
2022-12-18T00:31:34.882Z,81.74
2022-12-18T00:34:04.672Z,81.80
2022-12-18T00:36:35.215Z,81.82
2022-12-18T00:39:06.771Z,81.90
2022-12-18T00:41:52.440Z,81.77
2022-12-18T00:44:21.550Z,81.62
2022-12-18T00:46:50.190Z,81.64
2022-12-18T00:49:22.073Z,81.40
2022-12-18T00:51:50.764Z,81.34
2022-12-18T00:54:19.553Z,81.50
2022-12-18T00:56:49.827Z,81.16
2022-12-18T00:59:18.694Z,80.97
2022-12-18T01:01:47.807Z,80.92
2022-12-18T01:04:16.661Z,80.67
2022-12-18T01:06:46.176Z,80.61
2022-12-18T01:09:14.721Z,80.67
2022-12-18T01:11:42.893Z,80.85
2022-12-18T01:14:11.248Z,80.64
2022-12-18T01:16:39.415Z,79.93
2022-12-18T01:19:07.826Z,79.13
2022-12-18T01:21:36.681Z,79.17
2022-12-18T01:24:07.947Z,79.56
2022-12-18T01:26:35.995Z,80.01
2022-12-18T01:29:04.285Z,80.04
2022-12-18T01:31:35.318Z,80.04
2022-12-18T01:34:04.425Z,80.09
2022-12-18T01:36:35.121Z,80.19
2022-12-18T01:39:10.308Z,80.05
2022-12-18T01:41:52.764Z,79.94
2022-12-18T01:45:00.850Z,79.22
2022-12-18T01:47:36.744Z,78.92
2022-12-18T01:50:15.085Z,79.02
2022-12-18T01:52:46.817Z,78.88
2022-12-18T01:55:21.425Z,78.57
2022-12-18T01:57:51.528Z,78.84
2022-12-18T02:00:23.218Z,78.99
2022-12-18T02:02:51.861Z,78.94
2022-12-18T02:05:26.823Z,79.42
2022-12-18T02:08:10.356Z,79.43
2022-12-18T02:10:50.309Z,79.48
2022-12-18T02:13:27.849Z,79.75
2022-12-18T02:16:07.645Z,79.90
2022-12-18T02:18:42.994Z,80.20
2022-12-18T02:21:27.388Z,80.14
2022-12-18T02:24:13.441Z,79.89
2022-12-18T02:26:50.695Z,79.45
2022-12-18T02:29:28.316Z,78.99
2022-12-18T02:32:04.272Z,78.41
2022-12-18T02:34:37.125Z,78.57
2022-12-18T02:37:11.653Z,78.98
2022-12-18T02:39:45.199Z,79.10
2022-12-18T02:42:15.540Z,79.63
2022-12-18T02:44:48.998Z,80.08
2022-12-18T02:47:20.649Z,80.17
2022-12-18T02:50:04.342Z,80.56
2022-12-18T02:52:42.519Z,80.59
2022-12-18T02:55:28.975Z,80.74
2022-12-18T02:58:07.651Z,80.75
2022-12-18T03:00:43.849Z,80.27
2022-12-18T03:03:20.631Z,80.29
2022-12-18T03:05:58.633Z,80.54
2022-12-18T03:08:30.966Z,80.55
2022-12-18T03:11:04.855Z,80.14
2022-12-18T03:13:41.763Z,79.79
2022-12-18T03:16:14.295Z,79.68
2022-12-18T03:18:50.162Z,79.84
2022-12-18T03:21:25.079Z,79.33
2022-12-18T03:23:55.460Z,79.35
2022-12-18T03:26:27.916Z,79.56
2022-12-18T03:29:06.880Z,79.71
2022-12-18T03:31:39.730Z,79.47
2022-12-18T03:34:16.248Z,79.70
2022-12-18T03:36:44.692Z,80.09
2022-12-18T03:39:12.909Z,80.09
2022-12-18T03:41:49.706Z,80.03
2022-12-18T03:44:30.065Z,80.08
2022-12-18T03:47:08.791Z,80.00
2022-12-18T03:49:44.542Z,79.89
2022-12-18T03:52:23.820Z,80.19
2022-12-18T03:54:53.325Z,79.91
2022-12-18T03:57:28.052Z,79.69
2022-12-18T04:00:03.618Z,80.12
2022-12-18T04:02:35.796Z,79.73
2022-12-18T04:05:08.727Z,79.76
2022-12-18T04:07:38.266Z,80.32
2022-12-18T04:10:10.365Z,80.08
2022-12-18T04:12:40.128Z,79.93
2022-12-18T04:15:11.604Z,79.97
2022-12-18T04:17:40.910Z,79.91
2022-12-18T04:20:10.455Z,79.72
2022-12-18T04:22:38.580Z,79.85
2022-12-18T04:25:07.738Z,80.08
2022-12-18T04:27:36.126Z,80.03
2022-12-18T04:30:05.614Z,79.82
2022-12-18T04:32:36.114Z,79.89
2022-12-18T04:35:05.145Z,79.78
2022-12-18T04:37:33.269Z,80.05
2022-12-18T04:40:01.333Z,79.80
2022-12-18T04:42:29.440Z,79.86
2022-12-18T04:44:57.499Z,79.91
2022-12-18T04:47:25.625Z,79.65
2022-12-18T04:49:55.036Z,79.36
2022-12-18T04:52:25.818Z,79.15
2022-12-18T04:54:53.959Z,79.57
2022-12-18T04:57:22.043Z,79.61
2022-12-18T04:59:50.432Z,79.42
2022-12-18T05:02:18.703Z,78.91
2022-12-18T05:04:46.844Z,78.96
2022-12-18T05:07:16.655Z,78.41
2022-12-18T05:09:44.763Z,78.06
2022-12-18T05:12:13.392Z,78.16
2022-12-18T05:14:41.484Z,77.93
2022-12-18T05:17:09.965Z,77.50
2022-12-18T05:19:41.095Z,77.50
2022-12-18T05:22:12.112Z,77.32
2022-12-18T05:24:41.867Z,77.42
2022-12-18T05:27:10.001Z,77.17
2022-12-18T05:29:38.086Z,76.63
2022-12-18T05:32:06.593Z,77.34
2022-12-18T05:34:34.768Z,77.44
2022-12-18T05:37:02.959Z,77.31
2022-12-18T05:39:31.280Z,77.30
2022-12-18T05:42:00.718Z,77.86
2022-12-18T05:44:28.824Z,77.85
2022-12-18T05:46:57.063Z,77.69
2022-12-18T05:49:25.194Z,78.15
2022-12-18T05:51:53.378Z,78.11
2022-12-18T05:54:21.541Z,78.48
2022-12-18T05:56:49.614Z,78.52
2022-12-18T05:59:19.067Z,78.97
2022-12-18T06:01:47.448Z,79.06
2022-12-18T06:04:15.712Z,79.05
2022-12-18T06:06:43.860Z,79.29
2022-12-18T06:09:12.813Z,79.34
2022-12-18T06:11:41.562Z,79.35
2022-12-18T06:14:11.888Z,79.40
2022-12-18T06:16:41.363Z,79.09
2022-12-18T06:19:09.461Z,79.08
2022-12-18T06:21:37.698Z,79.03
2022-12-18T06:24:06.822Z,79.05
2022-12-18T06:26:35.319Z,78.99
2022-12-18T06:29:03.407Z,78.63
2022-12-18T06:31:31.521Z,78.20
2022-12-18T06:34:01.025Z,77.93
2022-12-18T06:36:32.463Z,78.02
2022-12-18T06:39:01.177Z,77.61
2022-12-18T06:41:29.331Z,77.58
2022-12-18T06:43:59.940Z,78.00
2022-12-18T06:46:28.649Z,78.04
2022-12-18T06:48:56.784Z,77.92
2022-12-18T06:51:27.293Z,77.46
2022-12-18T06:53:55.409Z,77.21
2022-12-18T06:56:24.039Z,77.54
2022-12-18T06:58:52.133Z,78.01
2022-12-18T07:01:20.596Z,77.99
2022-12-18T07:03:49.269Z,78.23
2022-12-18T07:06:20.300Z,78.62
2022-12-18T07:08:50.998Z,78.49
2022-12-18T07:11:20.228Z,78.86
2022-12-18T07:13:49.539Z,78.99
2022-12-18T07:16:24.870Z,79.23
2022-12-18T07:18:54.218Z,79.45
2022-12-18T07:21:24.330Z,79.51
2022-12-18T07:23:54.115Z,79.22
2022-12-18T07:26:23.813Z,79.14
2022-12-18T07:28:52.573Z,78.96
2022-12-18T07:31:23.904Z,78.83
2022-12-18T07:33:53.265Z,77.49
2022-12-18T07:36:24.687Z,77.32
2022-12-18T07:38:54.424Z,77.42
2022-12-18T07:41:22.969Z,77.16
2022-12-18T07:43:51.142Z,76.59
2022-12-18T07:46:19.573Z,76.28
2022-12-18T07:48:50.086Z,76.46
2022-12-18T07:51:19.801Z,76.35
2022-12-18T07:53:49.672Z,76.07
2022-12-18T07:56:31.177Z,76.23
2022-12-18T07:59:00.716Z,75.53
2022-12-18T08:01:29.336Z,75.47
2022-12-18T08:03:59.628Z,75.70
2022-12-18T08:06:27.952Z,75.22
2022-12-18T08:08:58.110Z,74.95
2022-12-18T08:11:30.734Z,75.36
2022-12-18T08:13:59.848Z,75.89
2022-12-18T08:16:28.554Z,75.94
2022-12-18T08:18:57.092Z,75.40
2022-12-18T08:21:28.632Z,74.68
2022-12-18T08:24:00.032Z,73.78
2022-12-18T08:26:32.565Z,73.75
2022-12-18T08:29:02.370Z,73.82
2022-12-18T08:31:32.557Z,73.94
2022-12-18T08:34:00.831Z,73.92
2022-12-18T08:36:28.926Z,73.56
2022-12-18T08:38:58.140Z,73.85
2022-12-18T08:41:27.190Z,74.20
2022-12-18T08:44:14.193Z,73.70
2022-12-18T08:46:45.327Z,73.52
2022-12-18T08:49:14.235Z,73.28
2022-12-18T08:51:42.425Z,73.13
2022-12-18T08:54:15.984Z,72.50
2022-12-18T08:56:44.139Z,72.44
2022-12-18T08:59:19.407Z,71.62
2022-12-18T09:01:49.269Z,70.67
2022-12-18T09:04:17.961Z,70.41
2022-12-18T09:06:46.096Z,71.05
2022-12-18T09:09:14.527Z,70.34
2022-12-18T09:11:42.628Z,70.34
2022-12-18T09:14:13.432Z,71.01
2022-12-18T09:16:41.710Z,71.47
2022-12-18T09:19:11.757Z,70.38
2022-12-18T09:21:46.160Z,69.71
2022-12-18T09:24:17.894Z,69.91
2022-12-18T09:26:47.290Z,69.80
2022-12-18T09:29:18.962Z,69.08
2022-12-18T09:31:47.730Z,69.34
2022-12-18T09:34:15.981Z,69.55
2022-12-18T09:36:44.404Z,69.76
2022-12-18T09:39:12.551Z,69.08
2022-12-18T09:41:48.275Z,69.17
2022-12-18T09:44:25.654Z,69.60
2022-12-18T09:47:05.266Z,70.12
2022-12-18T09:49:39.374Z,69.12
2022-12-18T09:52:17.087Z,68.47
2022-12-18T09:54:50.048Z,68.71
2022-12-18T09:57:25.404Z,68.68
2022-12-18T10:00:03.999Z,68.50
2022-12-18T10:02:33.729Z,68.68
2022-12-18T10:05:12.437Z,68.54
2022-12-18T10:08:01.530Z,69.17
2022-12-18T10:10:40.520Z,69.36
2022-12-18T10:13:23.770Z,69.41
2022-12-18T10:16:16.223Z,69.08
2022-12-18T10:19:06.166Z,67.95
2022-12-18T10:21:44.054Z,67.77
2022-12-18T10:24:28.717Z,67.73
2022-12-18T10:27:10.437Z,67.07
2022-12-18T10:29:39.333Z,66.98
2022-12-18T10:32:15.370Z,67.10
2022-12-18T10:34:47.247Z,67.03
2022-12-18T10:37:20.394Z,67.40
2022-12-18T10:40:06.468Z,67.78
2022-12-18T10:42:35.020Z,67.94
2022-12-18T10:45:10.769Z,68.00
2022-12-18T10:47:46.873Z,67.77
2022-12-18T10:50:47.145Z,67.41
2022-12-18T10:53:23.661Z,66.43
2022-12-18T10:55:55.478Z,66.72
2022-12-18T10:58:28.957Z,66.42
2022-12-18T11:01:11.749Z,66.91
2022-12-18T11:03:45.522Z,66.19
2022-12-18T11:06:16.873Z,66.61
2022-12-18T11:08:58.937Z,66.85
2022-12-18T11:11:27.739Z,67.07
2022-12-18T11:14:04.365Z,66.49
2022-12-18T11:16:38.468Z,66.57
2022-12-18T11:19:25.336Z,66.39
2022-12-18T11:21:53.606Z,65.98
2022-12-18T11:24:30.024Z,66.74
2022-12-18T11:27:00.379Z,66.88
2022-12-18T11:29:43.263Z,67.12
2022-12-18T11:32:39.296Z,67.68
2022-12-18T11:35:22.528Z,67.66
2022-12-18T11:37:58.603Z,68.02
2022-12-18T11:40:41.042Z,67.82
2022-12-18T11:43:17.553Z,68.10
2022-12-18T11:45:54.638Z,68.35
2022-12-18T11:48:29.560Z,68.15
2022-12-18T11:51:02.349Z,68.13
2022-12-18T11:53:32.476Z,68.10
2022-12-18T11:56:28.912Z,67.23
2022-12-18T11:59:17.503Z,67.35
2022-12-18T12:01:54.404Z,66.74
2022-12-18T12:04:50.058Z,66.26
2022-12-18T12:07:40.676Z,66.29
2022-12-18T12:10:27.573Z,65.99
2022-12-18T12:13:21.295Z,66.15
2022-12-18T12:16:05.139Z,65.63
2022-12-18T12:18:51.990Z,65.65
2022-12-18T12:21:30.449Z,65.68
2022-12-18T12:24:20.849Z,64.42
2022-12-18T12:27:04.946Z,64.48
2022-12-18T12:29:52.062Z,64.55
2022-12-18T12:32:38.613Z,64.49
2022-12-18T12:35:23.263Z,64.68
2022-12-18T12:38:07.147Z,64.83
2022-12-18T12:40:53.458Z,64.70
2022-12-18T12:43:34.609Z,65.37
2022-12-18T12:46:07.472Z,65.86
2022-12-18T12:48:44.705Z,66.42
2022-12-18T12:51:21.492Z,66.82
2022-12-18T12:53:50.991Z,66.54
2022-12-18T12:56:23.214Z,66.26
2022-12-18T12:59:13.204Z,65.99
2022-12-18T13:01:55.492Z,64.89
2022-12-18T13:04:38.290Z,65.09
2022-12-18T13:07:18.387Z,64.76
2022-12-18T13:10:34.864Z,64.20
2022-12-18T13:13:09.032Z,64.93
2022-12-18T13:15:42.476Z,65.00
2022-12-18T13:18:21.497Z,64.18
2022-12-18T13:20:56.494Z,64.69
2022-12-18T13:23:37.495Z,65.13
2022-12-18T13:26:34.079Z,65.21
2022-12-18T13:29:05.477Z,65.60
2022-12-18T13:32:22.015Z,66.38
2022-12-18T13:35:11.395Z,65.73
2022-12-18T13:37:45.818Z,66.09
2022-12-18T13:40:57.254Z,66.93
2022-12-18T13:43:45.325Z,67.23
2022-12-18T13:46:27.914Z,67.87
2022-12-18T13:49:05.442Z,67.98
2022-12-18T13:51:37.210Z,67.99
2022-12-18T13:54:25.940Z,68.54
2022-12-18T13:56:54.261Z,69.15
2022-12-18T13:59:25.194Z,69.41
2022-12-18T14:01:58.038Z,69.72
2022-12-18T14:04:30.265Z,69.73
2022-12-18T14:07:04.921Z,69.51
2022-12-18T14:09:37.966Z,70.08
2022-12-18T14:12:26.599Z,70.57
2022-12-18T14:14:55.716Z,71.00
2022-12-18T14:17:25.984Z,71.22
2022-12-18T14:19:54.945Z,71.49
2022-12-18T14:22:30.435Z,71.78
2022-12-18T14:25:18.360Z,72.20
2022-12-18T14:27:49.580Z,72.31
2022-12-18T14:30:33.508Z,72.35
2022-12-18T14:33:12.369Z,72.41
2022-12-18T14:35:43.444Z,72.59
2022-12-18T14:38:25.155Z,72.33
2022-12-18T14:41:00.925Z,72.54
2022-12-18T14:43:31.360Z,72.85
2022-12-18T14:46:01.033Z,72.66
2022-12-18T14:48:40.760Z,72.92
2022-12-18T14:51:18.431Z,73.34
2022-12-18T14:53:54.423Z,73.77
2022-12-18T14:56:26.383Z,73.48
2022-12-18T14:58:58.933Z,73.46
2022-12-18T15:01:31.886Z,73.75
2022-12-18T15:04:03.967Z,73.85
2022-12-18T15:06:39.543Z,73.98
2022-12-18T15:09:25.423Z,73.76
2022-12-18T15:11:59.260Z,73.34
2022-12-18T15:14:41.732Z,73.40
2022-12-18T15:17:21.721Z,73.52
2022-12-18T15:19:56.009Z,73.57
2022-12-18T15:22:29.710Z,73.30
2022-12-18T15:25:00.157Z,73.66
2022-12-18T15:27:33.135Z,73.94
2022-12-18T15:30:23.170Z,73.67
2022-12-18T15:32:52.364Z,73.64
2022-12-18T15:35:25.198Z,73.29
2022-12-18T15:37:54.256Z,73.27
2022-12-18T15:40:25.264Z,73.21
2022-12-18T15:43:14.639Z,73.17
2022-12-18T15:45:42.788Z,72.98
2022-12-18T15:48:22.755Z,73.08
2022-12-18T15:50:56.472Z,73.20
2022-12-18T15:53:25.638Z,73.23
2022-12-18T15:56:11.339Z,73.69
2022-12-18T15:58:39.500Z,73.97
2022-12-18T16:01:10.771Z,74.13
2022-12-18T16:03:39.293Z,74.17
2022-12-18T16:06:11.305Z,73.83
2022-12-18T16:08:39.535Z,73.27
2022-12-18T16:11:38.684Z,73.10
2022-12-18T16:14:14.816Z,73.11
2022-12-18T16:16:43.345Z,72.69
2022-12-18T16:19:11.410Z,72.59
2022-12-18T16:21:40.995Z,72.83
2022-12-18T16:24:17.770Z,73.37
2022-12-18T16:26:46.678Z,73.71
2022-12-18T16:29:14.787Z,73.38
2022-12-18T16:31:43.802Z,73.85
2022-12-18T16:34:23.969Z,74.12
2022-12-18T16:37:04.839Z,74.45
2022-12-18T16:39:34.985Z,74.30
2022-12-18T16:42:05.705Z,74.45
2022-12-18T16:44:34.426Z,74.50
2022-12-18T16:47:03.865Z,74.59
2022-12-18T16:49:32.201Z,74.04
2022-12-18T16:52:05.111Z,73.61
2022-12-18T16:54:34.962Z,73.41
2022-12-18T16:57:03.083Z,73.12
2022-12-18T16:59:31.189Z,73.01
2022-12-18T17:02:00.284Z,72.95
2022-12-18T17:04:28.606Z,72.60
2022-12-18T17:06:56.960Z,72.90
2022-12-18T17:09:26.432Z,72.76
2022-12-18T17:11:55.454Z,72.83
2022-12-18T17:14:25.981Z,72.59
2022-12-18T17:17:19.697Z,72.71
2022-12-18T17:19:44.914Z,73.04
2022-12-18T17:22:12.954Z,73.12
2022-12-18T17:24:42.346Z,72.81
2022-12-18T17:27:10.400Z,72.59
2022-12-18T17:29:43.878Z,71.74
2022-12-18T17:32:15.378Z,72.11
2022-12-18T17:34:43.504Z,72.08
2022-12-18T17:37:11.644Z,71.79
2022-12-18T17:39:40.427Z,71.57
2022-12-18T17:42:15.055Z,71.18
2022-12-18T17:44:44.192Z,71.13
2022-12-18T17:47:12.924Z,71.04
2022-12-18T17:49:41.099Z,70.87
2022-12-18T17:52:09.483Z,70.77
2022-12-18T17:54:39.612Z,70.88
2022-12-18T17:57:09.249Z,70.99
2022-12-18T17:59:37.436Z,70.74
2022-12-18T18:02:05.802Z,70.38
2022-12-18T18:04:34.606Z,70.46
2022-12-18T18:07:02.999Z,70.32
2022-12-18T18:09:31.166Z,70.39
2022-12-18T18:12:18.076Z,70.37
2022-12-18T18:14:47.522Z,70.38
2022-12-18T18:17:15.760Z,70.34
2022-12-18T18:19:46.785Z,70.09
2022-12-18T18:22:18.034Z,70.35
2022-12-18T18:24:47.997Z,70.32
2022-12-18T18:27:16.737Z,69.85
2022-12-18T18:29:44.940Z,69.63
2022-12-18T18:32:14.375Z,69.50
2022-12-18T18:34:42.655Z,69.55
2022-12-18T18:37:12.079Z,70.03
2022-12-18T18:39:40.486Z,70.16
2022-12-18T18:42:08.725Z,69.94
2022-12-18T18:44:36.799Z,70.13
2022-12-18T18:47:07.418Z,70.28
2022-12-18T18:49:39.111Z,70.04
2022-12-18T18:52:08.154Z,69.48
2022-12-18T18:54:36.339Z,69.44
2022-12-18T18:57:20.410Z,68.96
2022-12-18T18:59:49.009Z,69.02
2022-12-18T19:02:18.917Z,69.21
2022-12-18T19:04:48.520Z,69.52
2022-12-18T19:07:29.765Z,69.34
2022-12-18T19:10:04.700Z,69.27
2022-12-18T19:12:52.385Z,68.03
2022-12-18T19:15:21.183Z,68.01
2022-12-18T19:17:49.283Z,68.53
2022-12-18T19:20:19.019Z,68.49
2022-12-18T19:22:50.956Z,68.38
2022-12-18T19:25:38.232Z,68.49
2022-12-18T19:28:15.834Z,68.33
2022-12-18T19:30:53.573Z,68.05
2022-12-18T19:33:45.966Z,68.30
2022-12-18T19:36:21.087Z,68.56
2022-12-18T19:38:50.933Z,68.15
2022-12-18T19:41:20.895Z,68.05
2022-12-18T19:43:50.948Z,67.42
2022-12-18T19:46:22.533Z,68.01
2022-12-18T19:48:51.949Z,67.84
2022-12-18T19:51:24.960Z,67.44
2022-12-18T19:53:58.470Z,68.01
2022-12-18T19:56:30.784Z,68.02
2022-12-18T19:58:59.092Z,67.73
2022-12-18T20:01:29.129Z,67.39
2022-12-18T20:03:58.355Z,67.71
2022-12-18T20:06:31.930Z,67.68
2022-12-18T20:09:03.924Z,67.53
2022-12-18T20:11:40.125Z,67.59
2022-12-18T20:14:10.480Z,67.82
2022-12-18T20:16:38.748Z,67.33
2022-12-18T20:19:08.159Z,67.84
2022-12-18T20:21:38.125Z,67.68
2022-12-18T20:24:08.303Z,67.75
2022-12-18T20:26:36.554Z,67.96
2022-12-18T20:29:04.753Z,67.87
2022-12-18T20:31:32.903Z,67.88
2022-12-18T20:34:02.668Z,67.82
2022-12-18T20:36:34.119Z,67.90
2022-12-18T20:39:06.501Z,67.40
2022-12-18T20:41:38.187Z,67.92
2022-12-18T20:44:22.003Z,68.07
2022-12-18T20:46:54.475Z,67.57
2022-12-18T20:49:23.344Z,67.34
2022-12-18T20:51:53.394Z,68.10
2022-12-18T20:54:24.861Z,68.27
2022-12-18T20:56:53.473Z,68.41
2022-12-18T20:59:23.071Z,68.05
2022-12-18T21:01:52.023Z,68.33
2022-12-18T21:04:20.733Z,68.58
2022-12-18T21:06:54.134Z,68.66
2022-12-18T21:09:37.173Z,68.71
2022-12-18T21:12:29.308Z,68.87
2022-12-18T21:14:59.432Z,68.26
2022-12-18T21:17:27.683Z,67.59
2022-12-18T21:19:57.519Z,67.23
2022-12-18T21:22:26.825Z,66.69
2022-12-18T21:24:56.203Z,66.87
2022-12-18T21:27:24.427Z,67.16
2022-12-18T21:29:52.991Z,66.98
2022-12-18T21:32:21.154Z,67.03
2022-12-18T21:34:53.003Z,67.07
2022-12-18T21:37:21.092Z,66.63
2022-12-18T21:39:49.168Z,66.45
2022-12-18T21:42:36.026Z,66.89
2022-12-18T21:45:04.362Z,67.40
2022-12-18T21:47:32.465Z,67.04
2022-12-18T21:50:00.533Z,65.86
2022-12-18T21:52:32.605Z,66.28
2022-12-18T21:55:08.413Z,66.51
2022-12-18T21:57:39.661Z,66.59
2022-12-18T22:00:18.546Z,66.42
2022-12-18T22:03:03.401Z,66.09
2022-12-18T22:05:36.755Z,66.27
2022-12-18T22:08:06.620Z,66.45
2022-12-18T22:10:35.167Z,66.42
2022-12-18T22:13:04.969Z,66.07
2022-12-18T22:15:33.515Z,65.92
2022-12-18T22:18:02.013Z,66.01
2022-12-18T22:20:30.385Z,66.20
2022-12-18T22:22:58.758Z,65.73
2022-12-18T22:25:29.267Z,66.06
2022-12-18T22:28:14.731Z,65.99
2022-12-18T22:30:45.669Z,65.77
2022-12-18T22:33:13.835Z,66.03
2022-12-18T22:35:42.228Z,66.28
2022-12-18T22:38:11.758Z,66.52
2022-12-18T22:40:39.935Z,66.70
2022-12-18T22:43:08.025Z,67.10
2022-12-18T22:45:38.531Z,67.29
2022-12-18T22:48:08.580Z,67.24
2022-12-18T22:50:36.739Z,66.96
2022-12-18T22:53:04.847Z,66.58
2022-12-18T22:55:32.988Z,66.14
2022-12-18T22:58:01.167Z,66.00
2022-12-18T23:00:29.294Z,65.49
2022-12-18T23:03:00.563Z,66.14
2022-12-18T23:05:32.015Z,66.07
2022-12-18T23:08:00.737Z,65.91
2022-12-18T23:10:29.075Z,66.08
2022-12-18T23:12:57.203Z,66.30
2022-12-18T23:15:28.149Z,66.58
2022-12-18T23:17:58.775Z,66.42
2022-12-18T23:20:28.283Z,66.68
2022-12-18T23:22:57.752Z,66.55
2022-12-18T23:25:25.964Z,66.62
2022-12-18T23:27:54.086Z,66.93
2022-12-18T23:30:22.253Z,66.97
2022-12-18T23:32:50.537Z,66.86
2022-12-18T23:35:19.140Z,67.09
2022-12-18T23:38:04.436Z,67.27
2022-12-18T23:40:34.092Z,67.77
2022-12-18T23:43:02.189Z,67.68
2022-12-18T23:45:30.510Z,67.51
2022-12-18T23:47:58.632Z,67.92
2022-12-18T23:50:29.259Z,68.31
2022-12-18T23:53:04.941Z,68.51
2022-12-18T23:55:40.647Z,68.68
2022-12-18T23:58:16.594Z,68.85
